Time;durP1;ratioP1;P1;durP2;ratioP2;P2;SDS_P1;SDS_P2;PMS_P1;PMS_P2;Temp;Humidity;BMP_temperature;BMP_pressure;BME280_temperature;BME280_humidity;BME280_pressure;Samples;Min_cycle;Max_cycle;Signal;HPM_P1;HPM_P2
2023/05/22 00:01:50;;;;;;;8.90;8.03;;;15.50;99.90;;;;;;5049756;28;20675;-62
2023/05/22 00:04:20;;;;;;;7.50;6.80;;;15.40;99.90;;;;;;5050909;28;20225;-63
2023/05/22 00:06:47;;;;;;;7.43;6.73;;;15.40;99.90;;;;;;5051037;28;20632;-62
2023/05/22 00:09:15;;;;;;;7.70;7.10;;;15.30;99.90;;;;;;5052577;28;20213;-62
2023/05/22 00:11:42;;;;;;;8.70;6.47;;;15.30;99.90;;;;;;5053503;28;20698;-63
2023/05/22 00:14:09;;;;;;;7.70;7.10;;;15.30;99.90;;;;;;5051742;28;20714;-62
2023/05/22 00:16:36;;;;;;;6.73;6.23;;;15.30;99.90;;;;;;5052962;28;20221;-58
2023/05/22 00:19:03;;;;;;;9.00;8.00;;;15.20;99.90;;;;;;5049794;28;20303;-58
2023/05/22 00:21:33;;;;;;;7.80;7.10;;;15.20;99.90;;;;;;5053327;28;20215;-59
2023/05/22 00:24:00;;;;;;;7.33;6.77;;;15.20;99.90;;;;;;5051408;28;20283;-58
2023/05/22 00:26:27;;;;;;;7.23;6.73;;;15.20;99.90;;;;;;5052358;28;20201;-60
2023/05/22 00:28:54;;;;;;;6.97;6.37;;;15.20;99.90;;;;;;5053094;28;20202;-60
2023/05/22 00:31:21;;;;;;;7.30;6.70;;;15.20;99.90;;;;;;5046506;28;20615;-63
2023/05/22 00:33:48;;;;;;;9.10;8.20;;;15.20;99.90;;;;;;5051247;28;20225;-60
2023/05/22 00:36:15;;;;;;;7.97;7.27;;;15.10;99.90;;;;;;5052763;28;20198;-62
2023/05/22 00:38:45;;;;;;;7.43;6.83;;;15.10;99.90;;;;;;5052897;28;20221;-62
2023/05/22 00:41:12;;;;;;;8.13;7.47;;;15.10;99.90;;;;;;5051303;28;20202;-62
2023/05/22 00:43:39;;;;;;;7.60;7.10;;;15.10;99.90;;;;;;5051811;28;20225;-61
2023/05/22 00:46:07;;;;;;;7.03;6.33;;;15.10;99.90;;;;;;5051889;28;20197;-62
2023/05/22 00:48:34;;;;;;;7.93;7.30;;;15.10;99.90;;;;;;5052749;28;20285;-60
2023/05/22 00:51:02;;;;;;;7.73;7.03;;;15.00;99.90;;;;;;5051244;28;20259;-62
2023/05/22 00:53:30;;;;;;;8.50;7.70;;;14.90;99.90;;;;;;5052140;28;20198;-64
2023/05/22 00:55:59;;;;;;;7.70;6.90;;;14.90;99.90;;;;;;5050131;28;20281;-67
2023/05/22 00:58:27;;;;;;;8.27;7.53;;;14.90;99.90;;;;;;5051538;28;20244;-69
2023/05/22 01:00:55;;;;;;;8.73;8.03;;;14.80;99.90;;;;;;5052580;28;20208;-63
2023/05/22 01:03:24;;;;;;;10.13;8.33;;;14.80;99.90;;;;;;5049078;28;20734;-70
2023/05/22 01:05:53;;;;;;;7.60;7.00;;;14.90;99.90;;;;;;5050493;28;20760;-71
2023/05/22 01:08:20;;;;;;;8.07;7.43;;;14.90;99.90;;;;;;5051286;28;20202;-61
2023/05/22 01:10:52;;;;;;;8.47;6.90;;;14.90;99.90;;;;;;5051940;28;20280;-61
2023/05/22 01:13:35;;;;;;;7.50;6.80;;;15.00;99.90;;;;;;5052779;28;20206;-60
2023/05/22 01:16:10;;;;;;;8.40;7.50;;;15.20;99.90;;;;;;5050738;28;20239;-63
2023/05/22 01:18:45;;;;;;;7.53;6.83;;;15.20;99.90;;;;;;5048091;28;20308;-53
2023/05/22 01:21:17;;;;;;;7.27;6.77;;;15.40;99.90;;;;;;5044408;28;20197;-59
2023/05/22 01:24:12;;;;;;;7.40;6.80;;;15.40;99.90;;;;;;5052550;28;20222;-65
2023/05/22 01:27:07;;;;;;;7.20;6.60;;;15.40;99.90;;;;;;5049911;28;20214;-64
2023/05/22 01:29:47;;;;;;;10.53;6.37;;;15.40;99.90;;;;;;5050442;28;20497;-66
2023/05/22 01:32:20;;;;;;;7.37;6.77;;;15.40;99.90;;;;;;5046224;28;20226;-70
2023/05/22 01:34:51;;;;;;;9.70;7.33;;;15.40;99.90;;;;;;5048872;28;20304;-60
2023/05/22 01:37:20;;;;;;;7.73;7.20;;;15.30;99.90;;;;;;5051488;28;20243;-59
2023/05/22 01:39:48;;;;;;;6.77;6.17;;;15.20;99.90;;;;;;5052263;28;20255;-59
2023/05/22 01:42:15;;;;;;;7.47;6.87;;;15.10;99.90;;;;;;5046670;28;20268;-60
2023/05/22 01:44:42;;;;;;;7.37;6.70;;;15.00;99.90;;;;;;5051522;28;20304;-60
2023/05/22 01:47:09;;;;;;;7.73;7.00;;;15.00;99.90;;;;;;5049694;28;20194;-59
2023/05/22 01:49:38;;;;;;;9.67;7.40;;;14.90;99.90;;;;;;5042373;28;20583;-59
2023/05/22 01:52:13;;;;;;;9.17;7.83;;;14.70;99.90;;;;;;5051176;28;20730;-59
2023/05/22 01:54:46;;;;;;;7.87;7.30;;;14.60;99.90;;;;;;5051969;28;20698;-59
2023/05/22 01:57:20;;;;;;;7.50;6.90;;;14.60;99.90;;;;;;5043199;28;20243;-60
2023/05/22 01:59:53;;;;;;;8.10;7.40;;;14.50;99.90;;;;;;5050887;28;20715;-59
2023/05/22 02:02:23;;;;;;;7.00;6.50;;;14.40;99.90;;;;;;5049851;28;20205;-59
2023/05/22 02:04:58;;;;;;;8.37;7.57;;;14.30;99.90;;;;;;5049404;28;20286;-59
2023/05/22 02:07:26;;;;;;;10.07;7.63;;;14.30;99.90;;;;;;5049974;28;20678;-59
2023/05/22 02:09:56;;;;;;;7.43;6.80;;;14.20;99.90;;;;;;5050862;28;20205;-60
2023/05/22 02:12:23;;;;;;;7.67;6.77;;;14.10;99.90;;;;;;5050460;28;20272;-60
2023/05/22 02:14:51;;;;;;;7.70;7.00;;;14.10;99.90;;;;;;5051015;28;20217;-59
2023/05/22 02:17:19;;;;;;;7.80;7.20;;;14.00;99.90;;;;;;5049617;28;20206;-59
2023/05/22 02:19:46;;;;;;;7.50;6.90;;;13.90;99.90;;;;;;5049908;28;20225;-60
2023/05/22 02:22:14;;;;;;;7.53;6.93;;;13.80;99.90;;;;;;5051197;28;20569;-60
2023/05/22 02:24:43;;;;;;;8.17;7.37;;;13.70;99.90;;;;;;5045895;28;20279;-59
2023/05/22 02:27:10;;;;;;;7.83;7.23;;;13.70;99.90;;;;;;5049252;28;20264;-59
2023/05/22 02:29:37;;;;;;;8.00;7.40;;;13.70;99.90;;;;;;5048371;28;20271;-60
2023/05/22 02:32:06;;;;;;;8.80;8.10;;;13.70;99.90;;;;;;5043554;28;20243;-59
2023/05/22 02:34:33;;;;;;;9.80;8.13;;;13.70;99.90;;;;;;5047698;28;20218;-60
2023/05/22 02:37:03;;;;;;;8.37;7.50;;;13.70;99.90;;;;;;5050323;28;20236;-59
2023/05/22 02:39:32;;;;;;;12.93;8.47;;;13.70;99.90;;;;;;5048466;28;20704;-60
2023/05/22 02:42:02;;;;;;;8.40;7.70;;;13.70;99.90;;;;;;5048845;28;20205;-59
2023/05/22 02:44:29;;;;;;;8.03;7.43;;;13.60;99.90;;;;;;5048925;28;20232;-59
2023/05/22 02:46:56;;;;;;;9.60;8.50;;;13.60;99.90;;;;;;5051648;28;20255;-59
2023/05/22 02:49:23;;;;;;;8.73;8.03;;;13.60;99.90;;;;;;5044880;28;20248;-59
2023/05/22 02:51:50;;;;;;;8.93;8.07;;;13.60;99.90;;;;;;5050125;28;20233;-59
2023/05/22 02:54:17;;;;;;;8.30;7.60;;;13.60;99.90;;;;;;5047797;28;20222;-59
2023/05/22 02:56:45;;;;;;;9.17;8.13;;;13.50;99.90;;;;;;5049595;28;20556;-60
2023/05/22 02:59:12;;;;;;;9.20;8.30;;;13.50;99.90;;;;;;5048320;28;20217;-59
2023/05/22 03:01:39;;;;;;;9.87;8.97;;;13.50;99.90;;;;;;5049731;28;20740;-59
2023/05/22 03:04:06;;;;;;;9.60;8.60;;;13.40;99.90;;;;;;5050458;28;20240;-59
2023/05/22 03:06:34;;;;;;;9.90;9.00;;;13.40;99.90;;;;;;5047460;28;20278;-59
2023/05/22 03:09:02;;;;;;;10.77;8.87;;;13.40;99.90;;;;;;5048948;28;20236;-59
2023/05/22 03:11:29;;;;;;;9.23;8.43;;;13.40;99.90;;;;;;5050564;28;20668;-59
2023/05/22 03:13:58;;;;;;;10.57;9.47;;;13.40;99.90;;;;;;5049002;28;20695;-59
2023/05/22 03:16:25;;;;;;;10.63;9.53;;;13.40;99.90;;;;;;5051483;28;20251;-59
2023/05/22 03:19:06;;;;;;;10.93;9.87;;;13.40;99.90;;;;;;5050376;28;20229;-59
2023/05/22 03:21:33;;;;;;;10.50;9.40;;;13.30;99.90;;;;;;5051531;28;20204;-60
2023/05/22 03:24:00;;;;;;;8.97;8.10;;;13.30;99.90;;;;;;5048731;28;20661;-59
2023/05/22 03:26:27;;;;;;;8.97;8.07;;;13.30;99.90;;;;;;5050099;28;20663;-59
2023/05/22 03:28:55;;;;;;;8.30;7.53;;;13.20;99.90;;;;;;5051207;28;20758;-59
2023/05/22 03:31:24;;;;;;;8.23;7.53;;;13.20;99.90;;;;;;5046758;28;20285;-59
2023/05/22 03:33:51;;;;;;;7.90;7.20;;;13.20;99.90;;;;;;5050019;28;20733;-59
2023/05/22 03:36:19;;;;;;;10.73;8.97;;;13.20;99.90;;;;;;5045331;28;20199;-59
2023/05/22 03:38:45;;;;;;;8.47;7.53;;;13.20;99.90;;;;;;5054181;28;20275;-59
2023/05/22 03:41:12;;;;;;;9.10;8.20;;;13.20;99.90;;;;;;5055065;28;20198;-60
2023/05/22 03:43:39;;;;;;;8.50;7.67;;;13.20;99.90;;;;;;5050587;28;20328;-59
2023/05/22 03:46:06;;;;;;;8.00;7.27;;;13.20;99.90;;;;;;5052430;28;20228;-59
2023/05/22 03:48:35;;;;;;;8.80;7.60;;;13.20;99.90;;;;;;5053990;28;20248;-59
2023/05/22 03:51:02;;;;;;;8.93;7.67;;;13.10;99.90;;;;;;5050371;28;20204;-59
2023/05/22 03:53:29;;;;;;;9.33;7.93;;;13.10;99.90;;;;;;5049798;28;20208;-59
2023/05/22 03:55:58;;;;;;;8.73;7.97;;;13.10;99.90;;;;;;5051720;28;20624;-59
2023/05/22 03:58:25;;;;;;;7.60;6.80;;;13.10;99.90;;;;;;5051420;28;20652;-60
2023/05/22 04:00:52;;;;;;;7.73;7.03;;;13.10;99.90;;;;;;5053832;28;20201;-60
2023/05/22 04:03:19;;;;;;;8.77;8.07;;;13.10;99.90;;;;;;5051325;28;20198;-59
2023/05/22 04:05:47;;;;;;;8.70;7.80;;;13.10;99.90;;;;;;5050911;28;20209;-59
2023/05/22 04:08:14;;;;;;;7.83;7.03;;;13.10;99.90;;;;;;5051197;28;20591;-59
2023/05/22 04:10:45;;;;;;;7.63;6.83;;;13.20;99.90;;;;;;5049043;28;20205;-60
2023/05/22 04:13:12;;;;;;;9.27;8.20;;;13.20;99.90;;;;;;5045627;28;20202;-59
2023/05/22 04:15:40;;;;;;;8.33;7.63;;;13.30;99.90;;;;;;5046040;28;20505;-59
2023/05/22 04:18:07;;;;;;;7.97;7.27;;;13.30;99.90;;;;;;5051093;28;20204;-59
2023/05/22 04:20:34;;;;;;;7.70;7.00;;;13.40;99.90;;;;;;5049593;28;20659;-59
2023/05/22 04:23:03;;;;;;;10.33;7.53;;;13.50;99.90;;;;;;5052089;28;20268;-60
2023/05/22 04:25:30;;;;;;;8.70;7.80;;;13.60;99.90;;;;;;5043756;28;20587;-59
2023/05/22 04:27:58;;;;;;;8.27;7.53;;;13.70;99.90;;;;;;5044979;28;20194;-59
2023/05/22 04:30:25;;;;;;;8.70;7.80;;;13.80;99.90;;;;;;5043361;28;20614;-60
2023/05/22 04:32:52;;;;;;;7.97;7.20;;;13.90;99.90;;;;;;5042560;28;20205;-59
2023/05/22 04:35:19;;;;;;;7.40;6.70;;;14.00;99.90;;;;;;5046543;28;20225;-59
2023/05/22 04:37:46;;;;;;;7.43;6.80;;;14.10;99.90;;;;;;5044176;28;20656;-60
2023/05/22 04:40:14;;;;;;;9.67;7.93;;;14.20;99.90;;;;;;5044920;28;20272;-60
2023/05/22 04:42:42;;;;;;;9.73;7.33;;;14.30;99.90;;;;;;5043345;28;20702;-59
2023/05/22 04:45:09;;;;;;;8.13;7.43;;;14.40;99.90;;;;;;5040805;28;20225;-60
2023/05/22 04:47:40;;;;;;;8.87;8.07;;;14.50;99.90;;;;;;5039002;28;20239;-59
2023/05/22 04:50:08;;;;;;;8.43;7.63;;;14.60;99.90;;;;;;5047099;28;20248;-60
2023/05/22 04:52:35;;;;;;;7.97;7.17;;;14.60;99.90;;;;;;5045484;28;20639;-59
2023/05/22 04:55:02;;;;;;;9.60;7.20;;;14.70;99.90;;;;;;5043725;28;20594;-59
2023/05/22 04:57:30;;;;;;;8.43;7.77;;;14.80;99.90;;;;;;5045591;28;20206;-60
2023/05/22 04:59:57;;;;;;;7.80;7.23;;;15.00;99.90;;;;;;5045140;28;20222;-60
2023/05/22 05:02:24;;;;;;;9.57;8.00;;;15.30;99.90;;;;;;5042772;28;21239;-60
2023/05/22 05:04:51;;;;;;;9.67;8.70;;;15.80;99.90;;;;;;5041716;28;20222;-59
2023/05/22 05:07:18;;;;;;;9.03;8.13;;;16.40;99.90;;;;;;5045580;28;20203;-60
2023/05/22 05:09:45;;;;;;;8.33;7.43;;;17.00;99.90;;;;;;5053313;28;20213;-59
2023/05/22 05:12:12;;;;;;;12.33;8.83;;;17.80;99.90;;;;;;5044640;28;20194;-59
2023/05/22 05:14:40;;;;;;;10.97;7.77;;;18.30;99.90;;;;;;5045886;28;20781;-60
2023/05/22 05:17:07;;;;;;;8.00;7.20;;;18.90;99.90;;;;;;5048765;28;20679;-59
2023/05/22 05:19:34;;;;;;;7.23;6.63;;;19.40;99.90;;;;;;5053486;28;20218;-59
2023/05/22 05:22:05;;;;;;;6.90;6.37;;;20.10;99.90;;;;;;5053422;28;20248;-60
2023/05/22 05:24:32;;;;;;;6.80;6.30;;;20.60;99.90;;;;;;5052344;28;20649;-60
2023/05/22 05:27:03;;;;;;;7.60;6.90;;;21.10;99.90;;;;;;5052882;28;20209;-60
2023/05/22 05:29:30;;;;;;;7.70;6.90;;;21.30;99.90;;;;;;5051995;28;20244;-60
2023/05/22 05:31:58;;;;;;;7.23;6.73;;;21.50;99.90;;;;;;5050780;28;20202;-60
2023/05/22 05:34:25;;;;;;;7.90;7.00;;;22.00;99.90;;;;;;5052125;28;20705;-60
2023/05/22 05:36:52;;;;;;;7.53;6.83;;;22.10;99.90;;;;;;5052878;28;20685;-60
2023/05/22 05:39:19;;;;;;;6.80;6.30;;;22.50;99.90;;;;;;5051702;28;20221;-60
2023/05/22 05:41:47;;;;;;;8.47;7.67;;;22.60;99.90;;;;;;5047274;28;20201;-60
2023/05/22 05:44:13;;;;;;;6.53;5.90;;;23.00;99.90;;;;;;5044549;28;20225;-60
2023/05/22 05:46:41;;;;;;;7.37;6.67;;;23.40;99.90;;;;;;5040562;28;20247;-60
2023/05/22 05:49:10;;;;;;;6.47;5.93;;;23.70;99.90;;;;;;5042457;28;20291;-59
2023/05/22 05:51:37;;;;;;;7.77;5.90;;;23.70;99.90;;;;;;5041739;28;20686;-60
2023/05/22 05:54:04;;;;;;;6.83;6.33;;;24.20;99.90;;;;;;5043613;28;20222;-59
2023/05/22 05:56:31;;;;;;;7.20;6.47;;;24.20;99.90;;;;;;5042001;28;20849;-60
2023/05/22 05:59:00;;;;;;;7.27;6.67;;;24.30;99.90;;;;;;5036984;28;20225;-62
2023/05/22 06:01:27;;;;;;;5.70;5.30;;;24.40;99.90;;;;;;5042391;28;20226;-60
2023/05/22 06:03:54;;;;;;;5.80;5.50;;;24.90;99.90;;;;;;5039974;28;20229;-61
2023/05/22 06:06:24;;;;;;;6.63;6.07;;;25.40;99.90;;;;;;5042975;28;20206;-53
2023/05/22 06:08:51;;;;;;;7.20;6.43;;;25.80;99.90;;;;;;5041499;28;20201;-53
2023/05/22 06:11:20;;;;;;;6.63;5.63;;;26.00;99.90;;;;;;5041635;28;20217;-53
2023/05/22 06:13:47;;;;;;;6.20;5.87;;;25.70;99.90;;;;;;5042996;28;20232;-53
2023/05/22 06:16:14;;;;;;;4.93;4.63;;;26.20;99.90;;;;;;5043215;28;20229;-53
2023/05/22 06:18:41;;;;;;;5.33;5.03;;;26.10;99.90;;;;;;5044022;28;20198;-53
2023/05/22 06:21:08;;;;;;;5.73;5.37;;;26.60;99.90;;;;;;5041053;28;20360;-53
2023/05/22 06:23:36;;;;;;;6.10;5.63;;;27.10;99.90;;;;;;5041384;28;20234;-53
2023/05/22 06:26:04;;;;;;;6.95;6.35;;;26.70;99.90;;;;;;5042714;28;20202;-53
2023/05/22 06:28:31;;;;;;;6.55;6.05;;;26.50;99.90;;;;;;5039410;28;20448;-60
2023/05/22 06:30:57;;;;;;;6.93;6.38;;;27.20;99.90;;;;;;5040000;28;20920;-64
2023/05/22 06:33:24;;;;;;;7.10;6.55;;;27.60;99.90;;;;;;5038740;28;20202;-66
2023/05/22 06:35:51;;;;;;;6.15;5.82;;;27.60;99.90;;;;;;5040519;28;20202;-54
2023/05/22 06:38:18;;;;;;;7.30;6.70;;;27.90;99.90;;;;;;5040957;28;20198;-53
2023/05/22 06:40:47;;;;;;;7.15;6.60;;;28.10;99.90;;;;;;5047535;28;20707;-53
2023/05/22 06:43:14;;;;;;;6.00;5.43;;;28.50;99.00;;;;;;5039920;28;20226;-54
2023/05/22 06:45:41;;;;;;;6.03;5.72;;;28.50;99.90;;;;;;5050552;28;20753;-54
2023/05/22 06:48:08;;;;;;;6.05;5.63;;;28.50;99.70;;;;;;5047626;28;20198;-54
2023/05/22 06:50:35;;;;;;;6.68;6.25;;;28.50;99.90;;;;;;5063566;22;20768;-57
2023/05/22 06:53:01;;;;;;;6.05;5.20;;;28.70;99.90;;;;;;5029421;28;20199;-57
2023/05/22 06:55:28;;;;;;;5.93;5.63;;;28.80;98.30;;;;;;5030415;28;20625;-57
2023/05/22 06:57:57;;;;;;;6.30;5.70;;;28.50;99.90;;;;;;5027495;28;20202;-57
2023/05/22 07:00:24;;;;;;;6.05;5.57;;;28.40;99.30;;;;;;5024348;28;20221;-59
2023/05/22 07:02:51;;;;;;;5.15;4.65;;;28.80;98.90;;;;;;5028732;28;20255;-57
2023/05/22 07:05:18;;;;;;;6.32;5.45;;;28.80;98.80;;;;;;5023065;28;20248;-57
2023/05/22 07:07:45;;;;;;;5.72;5.32;;;29.00;99.40;;;;;;5029401;28;20624;-57
2023/05/22 07:10:12;;;;;;;7.05;6.40;;;28.70;96.40;;;;;;5030511;28;20211;-56
2023/05/22 07:12:39;;;;;;;5.95;5.55;;;28.30;97.80;;;;;;5034088;28;20206;-57
2023/05/22 07:15:10;;;;;;;6.55;6.03;;;28.90;99.30;;;;;;5034012;28;20203;-56
2023/05/22 07:17:40;;;;;;;5.75;5.32;;;28.80;98.60;;;;;;5032951;28;20800;-57
2023/05/22 07:20:09;;;;;;;5.25;5.03;;;28.70;96.50;;;;;;5024313;28;20233;-57
2023/05/22 07:22:36;;;;;;;5.72;5.28;;;28.80;97.70;;;;;;5033956;28;20563;-57
2023/05/22 07:25:04;;;;;;;6.65;6.15;;;28.50;96.00;;;;;;5032380;28;20202;-57
2023/05/22 07:27:31;;;;;;;5.82;5.40;;;28.60;96.10;;;;;;5033340;28;20206;-57
2023/05/22 07:29:58;;;;;;;6.30;5.85;;;29.20;94.90;;;;;;5031806;28;20229;-57
2023/05/22 07:32:26;;;;;;;5.53;5.07;;;29.40;95.40;;;;;;5031347;28;20347;-57
2023/05/22 07:34:53;;;;;;;5.47;5.18;;;29.90;94.60;;;;;;5030461;28;20264;-57
2023/05/22 07:37:21;;;;;;;5.97;5.53;;;29.80;94.50;;;;;;5033641;28;20198;-57
2023/05/22 07:39:48;;;;;;;5.40;4.95;;;29.90;95.60;;;;;;5027924;28;20218;-58
2023/05/22 07:42:15;;;;;;;6.13;5.63;;;29.90;95.00;;;;;;5032471;28;20268;-58
2023/05/22 07:44:41;;;;;;;6.32;5.78;;;30.30;94.30;;;;;;5032083;28;20769;-58
2023/05/22 07:47:08;;;;;;;4.88;4.68;;;30.20;94.10;;;;;;5016223;28;20199;-57
2023/05/22 07:49:37;;;;;;;5.47;5.15;;;30.20;92.70;;;;;;5030232;28;20272;-57
2023/05/22 07:52:04;;;;;;;5.70;5.18;;;30.30;93.60;;;;;;5033507;28;20256;-57
2023/05/22 07:54:31;;;;;;;5.45;5.15;;;29.80;91.80;;;;;;5033530;28;20252;-58
2023/05/22 07:57:02;;;;;;;6.10;5.57;;;30.30;92.10;;;;;;5033385;28;20202;-58
2023/05/22 07:59:29;;;;;;;5.03;4.55;;;30.40;94.90;;;;;;5031873;28;20565;-58
2023/05/22 08:01:56;;;;;;;4.15;4.05;;;29.90;93.80;;;;;;5033108;28;20229;-58
2023/05/22 08:04:22;;;;;;;6.93;5.97;;;30.40;94.00;;;;;;5049417;28;20316;-58
2023/05/22 08:06:51;;;;;;;6.60;5.95;;;30.50;92.10;;;;;;5037762;28;20206;-57
2023/05/22 08:09:19;;;;;;;5.60;5.22;;;29.60;91.00;;;;;;5026523;28;20269;-57
2023/05/22 08:11:46;;;;;;;5.45;5.00;;;30.10;92.50;;;;;;5030137;28;20202;-57
2023/05/22 08:14:13;;;;;;;5.22;4.78;;;29.90;93.00;;;;;;5032626;28;20680;-58
2023/05/22 08:16:40;;;;;;;5.55;5.25;;;30.10;91.40;;;;;;5033165;28;20206;-57
2023/05/22 08:19:07;;;;;;;5.30;4.93;;;30.70;90.50;;;;;;5028616;28;20265;-58
2023/05/22 08:21:34;;;;;;;5.65;5.35;;;31.10;93.10;;;;;;5020427;28;20338;-57
2023/05/22 08:24:03;;;;;;;7.18;6.20;;;31.40;91.50;;;;;;5031040;28;20207;-58
2023/05/22 08:26:29;;;;;;;6.22;5.82;;;31.70;90.50;;;;;;5032877;28;20207;-58
2023/05/22 08:28:56;;;;;;;6.35;5.97;;;31.90;88.50;;;;;;5030112;28;20195;-58
2023/05/22 08:31:23;;;;;;;5.70;5.35;;;32.10;87.00;;;;;;5023910;28;20786;-58
2023/05/22 08:33:50;;;;;;;5.63;5.32;;;32.00;88.50;;;;;;5027296;28;20198;-58
2023/05/22 08:36:17;;;;;;;5.57;5.18;;;31.70;87.50;;;;;;5028376;28;20678;-58
2023/05/22 08:38:44;;;;;;;5.97;5.65;;;32.40;89.10;;;;;;5032500;28;20244;-58
2023/05/22 08:41:14;;;;;;;6.40;6.00;;;32.20;88.30;;;;;;5032301;28;20276;-58
2023/05/22 08:43:42;;;;;;;6.15;5.68;;;32.50;86.70;;;;;;5032294;28;20206;-58
2023/05/22 08:46:10;;;;;;;7.07;6.47;;;32.00;89.60;;;;;;5027837;28;20211;-57
2023/05/22 08:48:38;;;;;;;6.70;6.15;;;32.50;87.10;;;;;;5024694;28;20198;-57
2023/05/22 08:51:06;;;;;;;6.75;6.38;;;32.70;85.00;;;;;;5032818;28;20256;-57
2023/05/22 08:53:36;;;;;;;6.50;6.20;;;32.00;90.00;;;;;;5032479;28;20241;-57
2023/05/22 08:56:04;;;;;;;7.18;6.68;;;31.80;89.10;;;;;;5029252;28;20215;-57
2023/05/22 08:58:35;;;;;;;5.43;5.13;;;31.50;89.10;;;;;;5027798;28;20202;-57
2023/05/22 09:01:03;;;;;;;6.57;6.05;;;32.30;89.70;;;;;;5032238;28;20291;-57
2023/05/22 09:03:33;;;;;;;6.40;6.10;;;32.60;91.10;;;;;;5032098;28;20306;-58
2023/05/22 09:06:00;;;;;;;6.85;6.25;;;32.40;89.80;;;;;;5031328;28;20209;-58
2023/05/22 09:08:28;;;;;;;6.93;6.43;;;32.60;90.80;;;;;;5031948;28;20298;-58
2023/05/22 09:10:55;;;;;;;6.55;6.03;;;33.30;88.90;;;;;;5032536;28;20219;-58
2023/05/22 09:13:27;;;;;;;6.43;6.13;;;32.50;90.00;;;;;;5032076;28;20211;-58
2023/05/22 09:15:59;;;;;;;6.63;6.18;;;32.40;90.20;;;;;;5030922;28;20636;-58
2023/05/22 09:18:28;;;;;;;7.13;6.72;;;32.10;90.20;;;;;;5025915;28;20198;-58
2023/05/22 09:20:57;;;;;;;6.25;5.95;;;32.60;90.90;;;;;;5023659;28;20313;-57
2023/05/22 09:23:27;;;;;;;6.65;6.25;;;32.30;91.50;;;;;;5031973;28;20202;-57
2023/05/22 09:25:55;;;;;;;6.90;6.50;;;31.80;91.60;;;;;;5029583;28;20641;-57
2023/05/22 09:28:23;;;;;;;7.47;6.88;;;31.60;92.60;;;;;;5025876;28;20190;-58
2023/05/22 09:30:50;;;;;;;6.95;6.57;;;31.70;91.90;;;;;;5031665;28;20226;-57
2023/05/22 09:33:19;;;;;;;7.18;6.65;;;32.30;90.00;;;;;;5031449;28;20202;-57
2023/05/22 09:35:47;;;;;;;7.57;6.90;;;32.30;89.30;;;;;;5030180;28;20253;-57
2023/05/22 09:38:14;;;;;;;7.93;7.13;;;31.70;92.30;;;;;;5024844;28;20284;-57
2023/05/22 09:40:42;;;;;;;8.40;7.63;;;31.00;90.60;;;;;;5031920;28;20280;-58
2023/05/22 09:43:09;;;;;;;7.57;7.05;;;31.10;92.30;;;;;;5031668;28;20202;-57
2023/05/22 09:45:37;;;;;;;8.18;7.50;;;31.00;92.90;;;;;;5031052;28;20276;-57
2023/05/22 09:48:05;;;;;;;7.95;7.35;;;30.50;92.00;;;;;;5031144;28;20202;-57
2023/05/22 09:50:33;;;;;;;8.23;7.57;;;30.40;95.10;;;;;;5031747;28;20230;-57
2023/05/22 09:53:02;;;;;;;6.78;6.47;;;30.20;92.30;;;;;;5030307;28;20207;-57
2023/05/22 09:55:30;;;;;;;6.45;6.00;;;30.60;92.50;;;;;;5030609;28;22130;-57
2023/05/22 09:57:58;;;;;;;5.97;5.70;;;30.70;92.80;;;;;;5030410;28;20203;-58
2023/05/22 10:00:27;;;;;;;7.22;6.57;;;31.30;93.90;;;;;;5031348;28;20226;-57
2023/05/22 10:03:02;;;;;;;7.57;7.07;;;31.50;92.40;;;;;;5031234;28;20260;-58
2023/05/22 10:05:31;;;;;;;13.35;8.23;;;31.70;93.20;;;;;;5031286;28;20300;-58
2023/05/22 10:08:09;;;;;;;7.03;6.40;;;31.70;91.10;;;;;;5022183;28;20208;-57
2023/05/22 10:10:36;;;;;;;5.88;5.57;;;31.70;91.70;;;;;;5031294;28;20542;-58
2023/05/22 10:13:05;;;;;;;6.38;5.78;;;32.10;92.50;;;;;;5031181;28;20587;-57
2023/05/22 10:15:32;;;;;;;6.30;6.00;;;31.70;93.30;;;;;;5031385;28;20202;-57
2023/05/22 10:18:00;;;;;;;7.22;6.80;;;31.20;91.20;;;;;;5022013;28;20722;-57
2023/05/22 10:20:28;;;;;;;7.15;6.72;;;31.30;93.70;;;;;;5031296;28;20281;-58
2023/05/22 10:22:55;;;;;;;6.07;5.78;;;31.40;92.20;;;;;;5030885;28;20202;-58
2023/05/22 10:25:24;;;;;;;7.07;6.72;;;30.80;92.70;;;;;;5031005;28;20253;-58
2023/05/22 10:27:53;;;;;;;6.00;5.70;;;31.30;91.60;;;;;;5027879;28;20202;-57
2023/05/22 10:30:27;;;;;;;6.72;6.05;;;30.90;92.10;;;;;;5024438;28;20222;-58
2023/05/22 10:33:00;;;;;;;5.72;5.43;;;31.20;92.30;;;;;;5031142;28;20207;-57
2023/05/22 10:35:35;;;;;;;8.48;7.82;;;31.30;91.40;;;;;;5031013;28;20208;-57
2023/05/22 10:38:27;;;;;;;6.75;6.25;;;30.80;92.10;;;;;;5021866;28;20263;-57
2023/05/22 10:40:56;;;;;;;6.72;6.35;;;30.80;93.00;;;;;;5028871;28;20214;-58
2023/05/22 10:43:23;;;;;;;6.38;6.07;;;30.70;92.50;;;;;;5030844;28;20672;-58
2023/05/22 10:46:01;;;;;;;6.45;6.15;;;31.20;92.30;;;;;;5029376;28;20308;-57
2023/05/22 10:48:28;;;;;;;7.45;6.95;;;31.30;93.70;;;;;;5030555;28;20198;-57
2023/05/22 10:50:55;;;;;;;7.57;7.07;;;30.80;92.50;;;;;;5030633;28;20313;-57
2023/05/22 10:53:24;;;;;;;10.05;8.40;;;30.60;95.40;;;;;;5030811;28;20233;-57
2023/05/22 10:55:52;;;;;;;7.80;7.15;;;29.90;94.30;;;;;;5029859;28;20207;-57
2023/05/22 10:58:26;;;;;;;11.13;7.28;;;29.50;94.00;;;;;;5030540;28;20256;-57
2023/05/22 11:01:09;;;;;;;7.22;6.72;;;29.30;94.30;;;;;;5030368;28;20317;-57
2023/05/22 11:03:53;;;;;;;10.23;8.18;;;29.10;95.90;;;;;;5030764;28;20252;-57
2023/05/22 11:06:34;;;;;;;8.55;7.82;;;29.00;95.70;;;;;;5030002;28;20237;-57
2023/05/22 11:09:17;;;;;;;9.10;8.10;;;28.90;97.90;;;;;;5022482;28;20199;-57
2023/05/22 11:11:44;;;;;;;7.80;7.13;;;28.70;98.50;;;;;;5030738;28;20685;-56
2023/05/22 11:14:15;;;;;;;10.63;7.82;;;28.80;98.20;;;;;;5030241;28;20256;-57
2023/05/22 11:16:42;;;;;;;8.55;7.80;;;28.70;98.00;;;;;;5029334;28;20627;-57
2023/05/22 11:19:10;;;;;;;8.57;7.88;;;28.50;97.80;;;;;;5022682;28;20245;-57
2023/05/22 11:21:43;;;;;;;10.13;9.18;;;28.50;97.60;;;;;;5028837;28;20260;-57
2023/05/22 11:24:10;;;;;;;8.98;8.18;;;28.20;98.90;;;;;;5021546;28;20202;-57
2023/05/22 11:26:41;;;;;;;8.82;8.02;;;28.10;96.40;;;;;;5029841;28;20206;-57
2023/05/22 11:29:09;;;;;;;9.35;8.65;;;27.70;98.40;;;;;;5020613;28;20207;-57
2023/05/22 11:31:37;;;;;;;9.30;8.25;;;27.80;98.50;;;;;;5030232;28;20684;-57
2023/05/22 11:34:04;;;;;;;9.02;8.30;;;27.50;97.80;;;;;;5028863;28;20202;-57
2023/05/22 11:36:32;;;;;;;8.80;8.13;;;27.50;98.00;;;;;;5029092;28;20656;-57
2023/05/22 11:38:59;;;;;;;8.43;7.72;;;27.60;97.60;;;;;;5022359;28;20198;-57
2023/05/22 11:41:30;;;;;;;8.55;7.78;;;27.60;99.70;;;;;;5030349;28;20237;-57
2023/05/22 11:43:57;;;;;;;7.78;6.95;;;27.70;98.60;;;;;;5028933;28;20274;-57
2023/05/22 11:46:25;;;;;;;14.25;7.00;;;27.40;97.50;;;;;;5029363;28;20202;-56
2023/05/22 11:48:54;;;;;;;7.65;7.05;;;27.20;96.20;;;;;;5020161;28;20206;-57
2023/05/22 11:51:21;;;;;;;7.65;7.15;;;27.20;98.80;;;;;;5017895;28;20222;-57
2023/05/22 11:53:48;;;;;;;5.87;5.57;;;27.20;99.30;;;;;;5027783;28;20649;-57
2023/05/22 11:56:20;;;;;;;6.15;5.82;;;27.00;96.10;;;;;;5029555;28;20203;-57
2023/05/22 11:58:48;;;;;;;6.70;6.30;;;27.00;98.60;;;;;;5024640;28;20290;-57
2023/05/22 12:01:15;;;;;;;7.53;6.95;;;26.80;97.50;;;;;;5033705;28;20835;-57
2023/05/22 12:03:42;;;;;;;6.78;6.05;;;26.80;99.20;;;;;;5031844;28;20226;-57
2023/05/22 12:06:11;;;;;;;6.07;5.47;;;26.90;94.50;;;;;;5033968;28;20198;-56
2023/05/22 12:08:37;;;;;;;6.93;6.45;;;26.90;96.40;;;;;;5025577;28;20207;-57
2023/05/22 12:11:06;;;;;;;7.13;6.57;;;27.00;97.80;;;;;;5033612;28;20288;-57
2023/05/22 12:13:33;;;;;;;6.32;6.03;;;26.80;98.10;;;;;;5033432;28;20224;-56
2023/05/22 12:16:00;;;;;;;6.28;5.70;;;26.60;95.50;;;;;;5032976;28;20202;-56
2023/05/22 12:18:27;;;;;;;6.70;6.15;;;26.70;96.70;;;;;;5028051;28;20731;-57
2023/05/22 12:20:56;;;;;;;6.38;5.88;;;26.90;97.70;;;;;;5033241;28;20222;-57
2023/05/22 12:23:30;;;;;;;7.13;6.72;;;26.80;98.60;;;;;;5033365;28;20202;-57
2023/05/22 12:26:01;;;;;;;6.80;6.35;;;26.50;99.20;;;;;;5033511;28;20208;-57
2023/05/22 12:28:28;;;;;;;6.73;6.20;;;26.30;99.00;;;;;;5027288;28;20265;-57
2023/05/22 12:30:56;;;;;;;5.80;5.43;;;26.20;98.40;;;;;;5033243;28;20214;-57
2023/05/22 12:33:27;;;;;;;7.05;6.32;;;26.30;97.90;;;;;;5033181;28;20199;-56
2023/05/22 12:35:57;;;;;;;6.20;5.68;;;26.40;97.90;;;;;;5033406;28;20199;-57
2023/05/22 12:38:25;;;;;;;7.03;6.47;;;26.40;96.40;;;;;;5029963;28;20233;-57
2023/05/22 12:40:54;;;;;;;7.00;5.82;;;26.20;96.60;;;;;;5032874;28;20289;-57
2023/05/22 12:43:22;;;;;;;6.10;5.57;;;26.30;96.40;;;;;;5032948;28;20229;-57
2023/05/22 12:45:49;;;;;;;6.70;5.47;;;26.50;95.90;;;;;;5033273;28;20676;-57
2023/05/22 12:48:17;;;;;;;7.60;6.32;;;26.50;95.60;;;;;;5024105;28;20199;-56
2023/05/22 12:50:45;;;;;;;6.45;5.95;;;26.60;96.80;;;;;;5033048;28;20226;-57
2023/05/22 12:53:11;;;;;;;6.93;6.43;;;26.60;94.40;;;;;;5032642;28;20203;-57